sensor_id;sensor_type;location;lat;lon;timestamp;temperature;humidity
4820;DHT22;2424;49.696;6.630;2023-07-31T00:04:43;18.40;99.90
4820;DHT22;2424;49.696;6.630;2023-07-31T00:10:06;18.30;99.90
4820;DHT22;2424;49.696;6.630;2023-07-31T00:15:29;18.30;99.90
4820;DHT22;2424;49.696;6.630;2023-07-31T00:20:51;18.30;99.90
4820;DHT22;2424;49.696;6.630;2023-07-31T00:26:13;18.30;99.90
4820;DHT22;2424;49.696;6.630;2023-07-31T00:31:36;18.20;99.90
4820;DHT22;2424;49.696;6.630;2023-07-31T00:36:58;18.20;99.90
4820;DHT22;2424;49.696;6.630;2023-07-31T00:42:20;18.20;99.90
4820;DHT22;2424;49.696;6.630;2023-07-31T00:47:44;18.10;99.90
4820;DHT22;2424;49.696;6.630;2023-07-31T00:53:06;18.10;99.90
4820;DHT22;2424;49.696;6.630;2023-07-31T00:58:28;18.10;99.90
4820;DHT22;2424;49.696;6.630;2023-07-31T01:03:52;18.00;99.90
4820;DHT22;2424;49.696;6.630;2023-07-31T01:09:22;18.00;99.90
4820;DHT22;2424;49.696;6.630;2023-07-31T01:15:02;17.90;99.90
4820;DHT22;2424;49.696;6.630;2023-07-31T01:20:27;17.90;99.90
4820;DHT22;2424;49.696;6.630;2023-07-31T01:26:02;17.90;99.90
4820;DHT22;2424;49.696;6.630;2023-07-31T01:31:25;17.80;99.90
4820;DHT22;2424;49.696;6.630;2023-07-31T01:36:48;17.80;99.90
4820;DHT22;2424;49.696;6.630;2023-07-31T01:42:11;17.80;99.90
4820;DHT22;2424;49.696;6.630;2023-07-31T01:47:33;17.80;99.90
4820;DHT22;2424;49.696;6.630;2023-07-31T01:52:55;17.70;99.90
4820;DHT22;2424;49.696;6.630;2023-07-31T01:58:18;17.70;99.90
4820;DHT22;2424;49.696;6.630;2023-07-31T02:03:40;17.70;99.90
4820;DHT22;2424;49.696;6.630;2023-07-31T02:09:03;17.60;99.90
4820;DHT22;2424;49.696;6.630;2023-07-31T02:14:26;17.60;99.90
4820;DHT22;2424;49.696;6.630;2023-07-31T02:19:48;17.60;99.90
4820;DHT22;2424;49.696;6.630;2023-07-31T02:25:10;17.50;99.90
4820;DHT22;2424;49.696;6.630;2023-07-31T02:30:33;17.50;99.90
4820;DHT22;2424;49.696;6.630;2023-07-31T02:35:55;17.50;99.90
4820;DHT22;2424;49.696;6.630;2023-07-31T02:41:17;17.50;99.90
4820;DHT22;2424;49.696;6.630;2023-07-31T02:46:40;17.40;99.90
4820;DHT22;2424;49.696;6.630;2023-07-31T02:52:03;17.50;99.90
4820;DHT22;2424;49.696;6.630;2023-07-31T02:57:25;17.40;99.90
4820;DHT22;2424;49.696;6.630;2023-07-31T03:02:48;17.30;99.90
4820;DHT22;2424;49.696;6.630;2023-07-31T03:08:10;17.30;99.90
4820;DHT22;2424;49.696;6.630;2023-07-31T03:13:32;17.20;99.90
4820;DHT22;2424;49.696;6.630;2023-07-31T03:18:55;17.20;99.90
4820;DHT22;2424;49.696;6.630;2023-07-31T03:24:17;17.20;99.90
4820;DHT22;2424;49.696;6.630;2023-07-31T03:29:39;17.20;99.90
4820;DHT22;2424;49.696;6.630;2023-07-31T03:35:03;17.20;99.90
4820;DHT22;2424;49.696;6.630;2023-07-31T03:40:26;17.20;99.90
4820;DHT22;2424;49.696;6.630;2023-07-31T03:45:48;17.10;99.90
4820;DHT22;2424;49.696;6.630;2023-07-31T03:51:11;17.10;99.90
4820;DHT22;2424;49.696;6.630;2023-07-31T03:56:33;17.10;99.90
4820;DHT22;2424;49.696;6.630;2023-07-31T04:01:55;17.10;99.90
4820;DHT22;2424;49.696;6.630;2023-07-31T04:07:18;17.10;99.90
4820;DHT22;2424;49.696;6.630;2023-07-31T04:12:40;17.00;99.90
4820;DHT22;2424;49.696;6.630;2023-07-31T04:18:02;17.00;99.90
4820;DHT22;2424;49.696;6.630;2023-07-31T04:23:25;16.90;99.90
4820;DHT22;2424;49.696;6.630;2023-07-31T04:28:47;16.90;99.90
4820;DHT22;2424;49.696;6.630;2023-07-31T04:34:09;16.90;99.90
4820;DHT22;2424;49.696;6.630;2023-07-31T04:39:33;16.90;99.90
4820;DHT22;2424;49.696;6.630;2023-07-31T04:44:55;16.90;99.90
4820;DHT22;2424;49.696;6.630;2023-07-31T04:50:17;16.90;99.90
4820;DHT22;2424;49.696;6.630;2023-07-31T04:55:40;16.80;99.90
4820;DHT22;2424;49.696;6.630;2023-07-31T05:01:02;16.90;99.90
4820;DHT22;2424;49.696;6.630;2023-07-31T05:06:24;16.90;99.90
4820;DHT22;2424;49.696;6.630;2023-07-31T05:11:47;16.90;99.90
4820;DHT22;2424;49.696;6.630;2023-07-31T05:17:09;16.90;99.90
4820;DHT22;2424;49.696;6.630;2023-07-31T05:22:31;16.90;99.90
4820;DHT22;2424;49.696;6.630;2023-07-31T05:27:54;16.90;99.90
4820;DHT22;2424;49.696;6.630;2023-07-31T05:33:16;16.90;99.90
4820;DHT22;2424;49.696;6.630;2023-07-31T05:38:38;16.90;99.90
4820;DHT22;2424;49.696;6.630;2023-07-31T05:44:02;16.90;99.90
4820;DHT22;2424;49.696;6.630;2023-07-31T05:49:24;16.90;99.90
4820;DHT22;2424;49.696;6.630;2023-07-31T05:54:45;16.90;99.90
4820;DHT22;2424;49.696;6.630;2023-07-31T06:00:10;16.90;99.90
4820;DHT22;2424;49.696;6.630;2023-07-31T06:05:32;17.00;99.90
4820;DHT22;2424;49.696;6.630;2023-07-31T06:10:54;17.10;99.90
4820;DHT22;2424;49.696;6.630;2023-07-31T06:16:18;17.10;99.90
4820;DHT22;2424;49.696;6.630;2023-07-31T06:21:40;17.10;99.90
4820;DHT22;2424;49.696;6.630;2023-07-31T06:27:05;17.20;99.90
4820;DHT22;2424;49.696;6.630;2023-07-31T06:32:28;17.40;99.90
4820;DHT22;2424;49.696;6.630;2023-07-31T06:37:50;17.60;99.90
4820;DHT22;2424;49.696;6.630;2023-07-31T06:43:12;17.70;99.90
4820;DHT22;2424;49.696;6.630;2023-07-31T06:48:35;17.60;99.90
4820;DHT22;2424;49.696;6.630;2023-07-31T06:53:58;17.60;99.90
4820;DHT22;2424;49.696;6.630;2023-07-31T06:59:20;17.60;99.90
4820;DHT22;2424;49.696;6.630;2023-07-31T07:04:43;17.80;99.90
4820;DHT22;2424;49.696;6.630;2023-07-31T07:10:06;17.80;99.90
4820;DHT22;2424;49.696;6.630;2023-07-31T07:15:29;17.80;99.90
4820;DHT22;2424;49.696;6.630;2023-07-31T07:20:53;17.90;99.90
4820;DHT22;2424;49.696;6.630;2023-07-31T07:26:17;17.90;99.90
4820;DHT22;2424;49.696;6.630;2023-07-31T07:31:39;18.00;99.90
4820;DHT22;2424;49.696;6.630;2023-07-31T07:37:03;18.00;99.90
4820;DHT22;2424;49.696;6.630;2023-07-31T07:42:25;18.20;99.90
4820;DHT22;2424;49.696;6.630;2023-07-31T07:47:47;18.20;99.90
4820;DHT22;2424;49.696;6.630;2023-07-31T07:53:10;18.20;99.90
4820;DHT22;2424;49.696;6.630;2023-07-31T07:58:32;18.40;99.90
4820;DHT22;2424;49.696;6.630;2023-07-31T08:03:54;18.40;99.90
4820;DHT22;2424;49.696;6.630;2023-07-31T08:09:17;18.50;99.90
4820;DHT22;2424;49.696;6.630;2023-07-31T08:14:39;18.70;99.90
4820;DHT22;2424;49.696;6.630;2023-07-31T08:20:01;18.80;99.90
4820;DHT22;2424;49.696;6.630;2023-07-31T08:25:25;18.90;99.90
4820;DHT22;2424;49.696;6.630;2023-07-31T08:30:47;18.90;99.90
4820;DHT22;2424;49.696;6.630;2023-07-31T08:36:09;19.00;99.90
4820;DHT22;2424;49.696;6.630;2023-07-31T08:41:37;19.10;99.90
4820;DHT22;2424;49.696;6.630;2023-07-31T08:46:59;19.20;99.90
4820;DHT22;2424;49.696;6.630;2023-07-31T08:52:21;19.40;99.90
4820;DHT22;2424;49.696;6.630;2023-07-31T08:57:46;19.50;99.90
4820;DHT22;2424;49.696;6.630;2023-07-31T09:03:09;19.20;99.90
4820;DHT22;2424;49.696;6.630;2023-07-31T09:08:35;19.20;99.90
4820;DHT22;2424;49.696;6.630;2023-07-31T09:13:58;19.10;99.90
4820;DHT22;2424;49.696;6.630;2023-07-31T09:19:26;19.00;99.90
4820;DHT22;2424;49.696;6.630;2023-07-31T09:24:48;19.00;99.90
4820;DHT22;2424;49.696;6.630;2023-07-31T09:30:12;19.20;99.90
4820;DHT22;2424;49.696;6.630;2023-07-31T09:35:34;19.20;99.90
4820;DHT22;2424;49.696;6.630;2023-07-31T09:40:58;19.30;99.90
4820;DHT22;2424;49.696;6.630;2023-07-31T09:46:22;19.30;99.90
4820;DHT22;2424;49.696;6.630;2023-07-31T09:51:44;19.40;99.90
4820;DHT22;2424;49.696;6.630;2023-07-31T09:57:07;19.40;99.90
4820;DHT22;2424;49.696;6.630;2023-07-31T10:02:32;19.50;99.90
4820;DHT22;2424;49.696;6.630;2023-07-31T10:07:55;19.50;99.90
4820;DHT22;2424;49.696;6.630;2023-07-31T10:13:17;19.60;99.90
4820;DHT22;2424;49.696;6.630;2023-07-31T10:18:44;19.60;99.90
4820;DHT22;2424;49.696;6.630;2023-07-31T10:24:07;19.60;99.90
4820;DHT22;2424;49.696;6.630;2023-07-31T10:29:30;19.60;99.90
4820;DHT22;2424;49.696;6.630;2023-07-31T10:34:53;19.40;99.90
4820;DHT22;2424;49.696;6.630;2023-07-31T10:40:17;19.30;99.90
4820;DHT22;2424;49.696;6.630;2023-07-31T10:45:42;19.30;99.90
4820;DHT22;2424;49.696;6.630;2023-07-31T10:51:09;19.20;99.90
4820;DHT22;2424;49.696;6.630;2023-07-31T10:56:37;19.20;99.90
4820;DHT22;2424;49.696;6.630;2023-07-31T11:01:59;19.20;99.90
4820;DHT22;2424;49.696;6.630;2023-07-31T11:07:24;19.10;99.90
4820;DHT22;2424;49.696;6.630;2023-07-31T11:12:46;19.00;99.90
4820;DHT22;2424;49.696;6.630;2023-07-31T11:18:08;19.00;99.90
4820;DHT22;2424;49.696;6.630;2023-07-31T11:23:33;19.00;99.90
4820;DHT22;2424;49.696;6.630;2023-07-31T11:28:55;19.00;99.90
4820;DHT22;2424;49.696;6.630;2023-07-31T11:34:17;19.00;99.90
4820;DHT22;2424;49.696;6.630;2023-07-31T11:39:42;18.80;99.90
4820;DHT22;2424;49.696;6.630;2023-07-31T11:45:05;18.80;99.90
4820;DHT22;2424;49.696;6.630;2023-07-31T11:50:27;18.80;99.90
4820;DHT22;2424;49.696;6.630;2023-07-31T11:55:51;18.80;99.90
4820;DHT22;2424;49.696;6.630;2023-07-31T12:01:14;18.80;99.90
4820;DHT22;2424;49.696;6.630;2023-07-31T12:06:37;18.70;99.90
4820;DHT22;2424;49.696;6.630;2023-07-31T12:12:00;18.70;99.90
4820;DHT22;2424;49.696;6.630;2023-07-31T12:17:25;18.80;99.90
4820;DHT22;2424;49.696;6.630;2023-07-31T12:22:47;18.70;99.90
4820;DHT22;2424;49.696;6.630;2023-07-31T12:28:10;18.60;99.90
4820;DHT22;2424;49.696;6.630;2023-07-31T12:33:36;18.60;99.90
4820;DHT22;2424;49.696;6.630;2023-07-31T12:39:00;18.50;99.90
4820;DHT22;2424;49.696;6.630;2023-07-31T12:44:23;18.30;99.90
4820;DHT22;2424;49.696;6.630;2023-07-31T12:49:45;17.90;99.90
4820;DHT22;2424;49.696;6.630;2023-07-31T12:55:07;17.60;99.90
4820;DHT22;2424;49.696;6.630;2023-07-31T13:00:32;17.60;99.90
4820;DHT22;2424;49.696;6.630;2023-07-31T13:05:54;17.40;99.90
4820;DHT22;2424;49.696;6.630;2023-07-31T13:11:16;17.40;99.90
4820;DHT22;2424;49.696;6.630;2023-07-31T13:16:40;17.50;99.90
4820;DHT22;2424;49.696;6.630;2023-07-31T13:22:02;17.60;99.90
4820;DHT22;2424;49.696;6.630;2023-07-31T13:27:24;17.80;99.90
4820;DHT22;2424;49.696;6.630;2023-07-31T13:32:47;17.80;99.90
4820;DHT22;2424;49.696;6.630;2023-07-31T13:38:09;17.90;99.90
4820;DHT22;2424;49.696;6.630;2023-07-31T13:43:31;18.00;99.90
4820;DHT22;2424;49.696;6.630;2023-07-31T13:48:55;18.10;99.90
4820;DHT22;2424;49.696;6.630;2023-07-31T13:54:16;18.20;99.90
4820;DHT22;2424;49.696;6.630;2023-07-31T13:59:39;18.40;99.90
4820;DHT22;2424;49.696;6.630;2023-07-31T14:05:02;18.30;99.90
4820;DHT22;2424;49.696;6.630;2023-07-31T14:10:24;18.40;99.90
4820;DHT22;2424;49.696;6.630;2023-07-31T14:15:46;18.40;99.90
4820;DHT22;2424;49.696;6.630;2023-07-31T14:21:10;18.40;99.90
4820;DHT22;2424;49.696;6.630;2023-07-31T14:26:31;18.30;99.90
4820;DHT22;2424;49.696;6.630;2023-07-31T14:31:53;18.20;99.90
4820;DHT22;2424;49.696;6.630;2023-07-31T14:37:17;18.20;99.90
4820;DHT22;2424;49.696;6.630;2023-07-31T14:42:39;18.10;99.90
4820;DHT22;2424;49.696;6.630;2023-07-31T14:48:01;18.20;99.90
4820;DHT22;2424;49.696;6.630;2023-07-31T14:53:24;18.30;99.90
4820;DHT22;2424;49.696;6.630;2023-07-31T14:58:46;18.40;99.90
4820;DHT22;2424;49.696;6.630;2023-07-31T15:04:08;18.40;99.90
4820;DHT22;2424;49.696;6.630;2023-07-31T15:09:32;18.50;99.90
4820;DHT22;2424;49.696;6.630;2023-07-31T15:14:53;18.50;99.90
4820;DHT22;2424;49.696;6.630;2023-07-31T15:20:15;18.60;99.90
4820;DHT22;2424;49.696;6.630;2023-07-31T15:25:39;18.40;99.90
4820;DHT22;2424;49.696;6.630;2023-07-31T15:31:01;18.30;99.90
4820;DHT22;2424;49.696;6.630;2023-07-31T15:36:23;18.30;99.90
4820;DHT22;2424;49.696;6.630;2023-07-31T15:41:46;18.20;99.90
4820;DHT22;2424;49.696;6.630;2023-07-31T15:47:08;18.10;99.90
4820;DHT22;2424;49.696;6.630;2023-07-31T15:52:30;18.00;99.90
4820;DHT22;2424;49.696;6.630;2023-07-31T15:57:53;18.10;99.90
4820;DHT22;2424;49.696;6.630;2023-07-31T16:03:15;18.00;99.90
4820;DHT22;2424;49.696;6.630;2023-07-31T16:08:37;18.10;99.90
4820;DHT22;2424;49.696;6.630;2023-07-31T16:14:03;18.10;99.90
4820;DHT22;2424;49.696;6.630;2023-07-31T16:19:25;18.10;99.90
4820;DHT22;2424;49.696;6.630;2023-07-31T16:24:47;18.20;99.90
4820;DHT22;2424;49.696;6.630;2023-07-31T16:30:10;18.10;99.90
4820;DHT22;2424;49.696;6.630;2023-07-31T16:35:32;18.10;99.90
4820;DHT22;2424;49.696;6.630;2023-07-31T16:40:54;18.10;99.90
4820;DHT22;2424;49.696;6.630;2023-07-31T16:46:17;18.10;99.90
4820;DHT22;2424;49.696;6.630;2023-07-31T16:51:39;18.10;99.90
4820;DHT22;2424;49.696;6.630;2023-07-31T16:57:01;18.10;99.90
4820;DHT22;2424;49.696;6.630;2023-07-31T17:02:24;18.00;99.90
4820;DHT22;2424;49.696;6.630;2023-07-31T17:07:46;18.00;99.90
4820;DHT22;2424;49.696;6.630;2023-07-31T17:13:08;18.00;99.90
4820;DHT22;2424;49.696;6.630;2023-07-31T17:18:32;18.00;99.90
4820;DHT22;2424;49.696;6.630;2023-07-31T17:23:54;18.00;99.90
4820;DHT22;2424;49.696;6.630;2023-07-31T17:29:16;17.90;99.90
4820;DHT22;2424;49.696;6.630;2023-07-31T17:34:39;18.00;99.90
4820;DHT22;2424;49.696;6.630;2023-07-31T17:40:04;17.90;99.90
4820;DHT22;2424;49.696;6.630;2023-07-31T17:45:26;17.90;99.90
4820;DHT22;2424;49.696;6.630;2023-07-31T17:50:51;17.80;99.90
4820;DHT22;2424;49.696;6.630;2023-07-31T17:56:13;17.90;99.90
4820;DHT22;2424;49.696;6.630;2023-07-31T18:01:35;17.90;99.90
4820;DHT22;2424;49.696;6.630;2023-07-31T18:06:58;17.90;99.90
4820;DHT22;2424;49.696;6.630;2023-07-31T18:12:20;17.90;99.90
4820;DHT22;2424;49.696;6.630;2023-07-31T18:17:42;17.90;99.90
4820;DHT22;2424;49.696;6.630;2023-07-31T18:23:05;17.90;99.90
4820;DHT22;2424;49.696;6.630;2023-07-31T18:28:27;18.00;99.90
4820;DHT22;2424;49.696;6.630;2023-07-31T18:33:49;17.90;99.90
4820;DHT22;2424;49.696;6.630;2023-07-31T18:39:12;17.90;99.90
4820;DHT22;2424;49.696;6.630;2023-07-31T18:44:34;17.90;99.90
4820;DHT22;2424;49.696;6.630;2023-07-31T18:49:56;17.90;99.90
4820;DHT22;2424;49.696;6.630;2023-07-31T18:55:19;17.90;99.90
4820;DHT22;2424;49.696;6.630;2023-07-31T19:00:42;17.70;99.90
4820;DHT22;2424;49.696;6.630;2023-07-31T19:06:04;17.60;99.90
4820;DHT22;2424;49.696;6.630;2023-07-31T19:11:28;17.50;99.90
4820;DHT22;2424;49.696;6.630;2023-07-31T19:16:50;17.30;99.90
4820;DHT22;2424;49.696;6.630;2023-07-31T19:22:12;17.10;99.90
4820;DHT22;2424;49.696;6.630;2023-07-31T19:27:35;17.10;99.90
4820;DHT22;2424;49.696;6.630;2023-07-31T19:32:57;16.90;99.90
4820;DHT22;2424;49.696;6.630;2023-07-31T19:38:19;17.00;99.90
4820;DHT22;2424;49.696;6.630;2023-07-31T19:43:42;17.10;99.90
4820;DHT22;2424;49.696;6.630;2023-07-31T19:49:04;17.10;99.90
4820;DHT22;2424;49.696;6.630;2023-07-31T19:54:26;17.00;99.90
4820;DHT22;2424;49.696;6.630;2023-07-31T19:59:50;17.00;99.90
4820;DHT22;2424;49.696;6.630;2023-07-31T20:05:12;17.00;99.90
4820;DHT22;2424;49.696;6.630;2023-07-31T20:10:34;17.00;99.90
4820;DHT22;2424;49.696;6.630;2023-07-31T20:15:57;16.90;99.90
4820;DHT22;2424;49.696;6.630;2023-07-31T20:21:20;16.90;99.90
4820;DHT22;2424;49.696;6.630;2023-07-31T20:26:42;16.80;99.90
4820;DHT22;2424;49.696;6.630;2023-07-31T20:32:06;16.90;99.90
4820;DHT22;2424;49.696;6.630;2023-07-31T20:37:28;16.90;99.90
4820;DHT22;2424;49.696;6.630;2023-07-31T20:42:57;17.00;99.90
4820;DHT22;2424;49.696;6.630;2023-07-31T20:48:20;17.00;99.90
4820;DHT22;2424;49.696;6.630;2023-07-31T20:53:42;17.00;99.90
4820;DHT22;2424;49.696;6.630;2023-07-31T20:59:04;17.00;99.90
4820;DHT22;2424;49.696;6.630;2023-07-31T21:04:27;17.10;99.90
4820;DHT22;2424;49.696;6.630;2023-07-31T21:09:50;17.00;99.90
4820;DHT22;2424;49.696;6.630;2023-07-31T21:15:12;17.00;99.90
4820;DHT22;2424;49.696;6.630;2023-07-31T21:20:36;17.00;99.90
4820;DHT22;2424;49.696;6.630;2023-07-31T21:25:58;17.10;99.90
4820;DHT22;2424;49.696;6.630;2023-07-31T21:31:20;17.10;99.90
4820;DHT22;2424;49.696;6.630;2023-07-31T21:36:43;17.10;99.90
4820;DHT22;2424;49.696;6.630;2023-07-31T21:42:06;17.10;99.90
4820;DHT22;2424;49.696;6.630;2023-07-31T21:47:28;17.10;99.90
4820;DHT22;2424;49.696;6.630;2023-07-31T21:52:52;17.00;99.90
4820;DHT22;2424;49.696;6.630;2023-07-31T21:58:14;17.00;99.90
4820;DHT22;2424;49.696;6.630;2023-07-31T22:03:36;17.10;99.90
4820;DHT22;2424;49.696;6.630;2023-07-31T22:09:00;17.00;99.90
4820;DHT22;2424;49.696;6.630;2023-07-31T22:14:22;17.00;99.90
4820;DHT22;2424;49.696;6.630;2023-07-31T22:19:44;17.10;99.90
4820;DHT22;2424;49.696;6.630;2023-07-31T22:25:08;17.00;99.90
4820;DHT22;2424;49.696;6.630;2023-07-31T22:30:30;17.10;99.90
4820;DHT22;2424;49.696;6.630;2023-07-31T22:35:52;17.10;99.90
4820;DHT22;2424;49.696;6.630;2023-07-31T22:41:15;17.10;99.90
4820;DHT22;2424;49.696;6.630;2023-07-31T22:46:37;17.10;99.90
4820;DHT22;2424;49.696;6.630;2023-07-31T22:51:59;17.10;99.90
4820;DHT22;2424;49.696;6.630;2023-07-31T22:57:22;17.10;99.90
4820;DHT22;2424;49.696;6.630;2023-07-31T23:02:44;17.10;99.90
4820;DHT22;2424;49.696;6.630;2023-07-31T23:08:06;17.10;99.90
4820;DHT22;2424;49.696;6.630;2023-07-31T23:13:29;17.00;99.90
4820;DHT22;2424;49.696;6.630;2023-07-31T23:18:51;17.00;99.90
4820;DHT22;2424;49.696;6.630;2023-07-31T23:24:13;17.10;99.90
4820;DHT22;2424;49.696;6.630;2023-07-31T23:29:37;17.10;99.90
4820;DHT22;2424;49.696;6.630;2023-07-31T23:35:00;17.00;99.90
4820;DHT22;2424;49.696;6.630;2023-07-31T23:40:22;17.00;99.90
4820;DHT22;2424;49.696;6.630;2023-07-31T23:45:45;16.90;99.90
4820;DHT22;2424;49.696;6.630;2023-07-31T23:51:07;17.00;99.90
4820;DHT22;2424;49.696;6.630;2023-07-31T23:56:29;17.00;99.90
